sensor_id;sensor_type;location;lat;lon;timestamp;P1;durP1;ratioP1;P2;durP2;ratioP2
34433;SDS011;34290;48.562;13.384;2023-06-10T00:01:52;15.63;;;8.75;;
34433;SDS011;34290;48.562;13.384;2023-06-10T00:04:20;13.13;;;8.82;;
34433;SDS011;34290;48.562;13.384;2023-06-10T00:06:47;13.10;;;8.48;;
34433;SDS011;34290;48.562;13.384;2023-06-10T00:09:17;11.93;;;8.02;;
34433;SDS011;34290;48.562;13.384;2023-06-10T00:11:44;14.98;;;9.85;;
34433;SDS011;34290;48.562;13.384;2023-06-10T00:14:11;14.98;;;9.07;;
34433;SDS011;34290;48.562;13.384;2023-06-10T00:16:38;16.73;;;8.90;;
34433;SDS011;34290;48.562;13.384;2023-06-10T00:19:05;13.73;;;8.43;;
34433;SDS011;34290;48.562;13.384;2023-06-10T00:21:33;19.60;;;10.52;;
34433;SDS011;34290;48.562;13.384;2023-06-10T00:24:02;18.10;;;11.00;;
34433;SDS011;34290;48.562;13.384;2023-06-10T00:26:31;19.80;;;10.93;;
34433;SDS011;34290;48.562;13.384;2023-06-10T00:28:59;20.55;;;11.07;;
34433;SDS011;34290;48.562;13.384;2023-06-10T00:31:27;18.98;;;10.15;;
34433;SDS011;34290;48.562;13.384;2023-06-10T00:33:54;18.20;;;9.77;;
34433;SDS011;34290;48.562;13.384;2023-06-10T00:36:21;16.20;;;9.65;;
34433;SDS011;34290;48.562;13.384;2023-06-10T00:38:48;22.55;;;9.88;;
34433;SDS011;34290;48.562;13.384;2023-06-10T00:41:15;17.30;;;8.95;;
34433;SDS011;34290;48.562;13.384;2023-06-10T00:43:43;16.10;;;9.60;;
34433;SDS011;34290;48.562;13.384;2023-06-10T00:46:11;14.35;;;9.43;;
34433;SDS011;34290;48.562;13.384;2023-06-10T00:48:38;17.20;;;9.57;;
34433;SDS011;34290;48.562;13.384;2023-06-10T00:51:06;16.15;;;9.23;;
34433;SDS011;34290;48.562;13.384;2023-06-10T00:53:34;16.58;;;9.27;;
34433;SDS011;34290;48.562;13.384;2023-06-10T00:56:01;15.60;;;9.55;;
34433;SDS011;34290;48.562;13.384;2023-06-10T00:58:29;21.23;;;9.82;;
34433;SDS011;34290;48.562;13.384;2023-06-10T01:00:58;15.98;;;9.45;;
34433;SDS011;34290;48.562;13.384;2023-06-10T01:03:25;19.25;;;9.32;;
34433;SDS011;34290;48.562;13.384;2023-06-10T01:05:53;18.88;;;10.23;;
34433;SDS011;34290;48.562;13.384;2023-06-10T01:08:28;16.13;;;9.13;;
34433;SDS011;34290;48.562;13.384;2023-06-10T01:11:00;16.70;;;9.77;;
34433;SDS011;34290;48.562;13.384;2023-06-10T01:13:28;22.38;;;11.02;;
34433;SDS011;34290;48.562;13.384;2023-06-10T01:15:58;19.33;;;10.40;;
34433;SDS011;34290;48.562;13.384;2023-06-10T01:18:29;22.85;;;10.80;;
34433;SDS011;34290;48.562;13.384;2023-06-10T01:20:56;24.67;;;10.75;;
34433;SDS011;34290;48.562;13.384;2023-06-10T01:23:24;20.77;;;11.07;;
34433;SDS011;34290;48.562;13.384;2023-06-10T01:25:53;46.30;;;13.95;;
34433;SDS011;34290;48.562;13.384;2023-06-10T01:28:21;38.00;;;11.68;;
34433;SDS011;34290;48.562;13.384;2023-06-10T01:30:56;31.13;;;12.88;;
34433;SDS011;34290;48.562;13.384;2023-06-10T01:33:27;66.07;;;13.93;;
34433;SDS011;34290;48.562;13.384;2023-06-10T01:35:55;55.92;;;12.35;;
34433;SDS011;34290;48.562;13.384;2023-06-10T01:38:25;27.30;;;10.35;;
34433;SDS011;34290;48.562;13.384;2023-06-10T01:40:53;15.77;;;7.82;;
34433;SDS011;34290;48.562;13.384;2023-06-10T01:43:22;12.77;;;8.00;;
34433;SDS011;34290;48.562;13.384;2023-06-10T01:45:50;36.88;;;9.60;;
34433;SDS011;34290;48.562;13.384;2023-06-10T01:48:17;34.20;;;10.20;;
34433;SDS011;34290;48.562;13.384;2023-06-10T01:50:44;30.00;;;10.25;;
34433;SDS011;34290;48.562;13.384;2023-06-10T01:53:11;19.10;;;10.50;;
34433;SDS011;34290;48.562;13.384;2023-06-10T01:55:39;27.27;;;10.55;;
34433;SDS011;34290;48.562;13.384;2023-06-10T01:58:06;26.75;;;10.77;;
34433;SDS011;34290;48.562;13.384;2023-06-10T02:00:34;29.92;;;10.45;;
34433;SDS011;34290;48.562;13.384;2023-06-10T02:03:00;22.92;;;10.00;;
34433;SDS011;34290;48.562;13.384;2023-06-10T02:05:28;20.45;;;10.18;;
34433;SDS011;34290;48.562;13.384;2023-06-10T02:07:55;16.17;;;9.75;;
34433;SDS011;34290;48.562;13.384;2023-06-10T02:10:22;19.13;;;10.13;;
34433;SDS011;34290;48.562;13.384;2023-06-10T02:12:50;20.45;;;10.52;;
34433;SDS011;34290;48.562;13.384;2023-06-10T02:15:17;18.60;;;10.50;;
34433;SDS011;34290;48.562;13.384;2023-06-10T02:17:44;24.13;;;11.45;;
34433;SDS011;34290;48.562;13.384;2023-06-10T02:20:14;33.45;;;12.10;;
34433;SDS011;34290;48.562;13.384;2023-06-10T02:22:41;25.40;;;11.05;;
34433;SDS011;34290;48.562;13.384;2023-06-10T02:25:08;27.02;;;11.10;;
34433;SDS011;34290;48.562;13.384;2023-06-10T02:27:36;27.00;;;9.45;;
34433;SDS011;34290;48.562;13.384;2023-06-10T02:30:05;18.58;;;10.05;;
34433;SDS011;34290;48.562;13.384;2023-06-10T02:32:34;16.63;;;8.93;;
34433;SDS011;34290;48.562;13.384;2023-06-10T02:35:01;26.52;;;9.60;;
34433;SDS011;34290;48.562;13.384;2023-06-10T02:37:29;21.98;;;9.82;;
34433;SDS011;34290;48.562;13.384;2023-06-10T02:39:56;22.50;;;10.77;;
34433;SDS011;34290;48.562;13.384;2023-06-10T02:42:23;20.87;;;10.53;;
34433;SDS011;34290;48.562;13.384;2023-06-10T02:44:50;25.65;;;10.98;;
34433;SDS011;34290;48.562;13.384;2023-06-10T02:47:18;30.13;;;12.13;;
34433;SDS011;34290;48.562;13.384;2023-06-10T02:49:45;39.88;;;11.27;;
34433;SDS011;34290;48.562;13.384;2023-06-10T02:52:12;55.28;;;12.25;;
34433;SDS011;34290;48.562;13.384;2023-06-10T02:54:39;25.05;;;10.95;;
34433;SDS011;34290;48.562;13.384;2023-06-10T02:57:06;49.35;;;12.35;;
34433;SDS011;34290;48.562;13.384;2023-06-10T02:59:35;30.05;;;11.93;;
34433;SDS011;34290;48.562;13.384;2023-06-10T03:02:02;30.37;;;11.77;;
34433;SDS011;34290;48.562;13.384;2023-06-10T03:04:30;20.45;;;11.57;;
34433;SDS011;34290;48.562;13.384;2023-06-10T03:06:57;21.00;;;11.20;;
34433;SDS011;34290;48.562;13.384;2023-06-10T03:09:28;21.83;;;11.40;;
34433;SDS011;34290;48.562;13.384;2023-06-10T03:11:55;20.00;;;10.30;;
34433;SDS011;34290;48.562;13.384;2023-06-10T03:14:24;19.88;;;10.20;;
34433;SDS011;34290;48.562;13.384;2023-06-10T03:16:52;18.75;;;10.00;;
34433;SDS011;34290;48.562;13.384;2023-06-10T03:19:18;20.60;;;10.80;;
34433;SDS011;34290;48.562;13.384;2023-06-10T03:21:49;19.37;;;9.83;;
34433;SDS011;34290;48.562;13.384;2023-06-10T03:24:16;23.42;;;10.95;;
34433;SDS011;34290;48.562;13.384;2023-06-10T03:26:43;18.63;;;10.25;;
34433;SDS011;34290;48.562;13.384;2023-06-10T03:29:11;18.92;;;10.70;;
34433;SDS011;34290;48.562;13.384;2023-06-10T03:31:38;20.00;;;9.65;;
34433;SDS011;34290;48.562;13.384;2023-06-10T03:34:05;17.27;;;9.68;;
34433;SDS011;34290;48.562;13.384;2023-06-10T03:36:32;16.70;;;9.82;;
34433;SDS011;34290;48.562;13.384;2023-06-10T03:39:00;16.00;;;9.68;;
34433;SDS011;34290;48.562;13.384;2023-06-10T03:41:27;18.92;;;10.07;;
34433;SDS011;34290;48.562;13.384;2023-06-10T03:43:55;15.40;;;9.43;;
34433;SDS011;34290;48.562;13.384;2023-06-10T03:46:22;13.80;;;8.77;;
34433;SDS011;34290;48.562;13.384;2023-06-10T03:48:49;17.80;;;8.82;;
34433;SDS011;34290;48.562;13.384;2023-06-10T03:51:16;18.58;;;9.60;;
34433;SDS011;34290;48.562;13.384;2023-06-10T03:53:43;14.63;;;9.32;;
34433;SDS011;34290;48.562;13.384;2023-06-10T03:56:11;15.02;;;9.00;;
34433;SDS011;34290;48.562;13.384;2023-06-10T03:58:38;13.95;;;9.13;;
34433;SDS011;34290;48.562;13.384;2023-06-10T04:01:06;17.15;;;10.38;;
34433;SDS011;34290;48.562;13.384;2023-06-10T04:03:33;14.40;;;8.85;;
34433;SDS011;34290;48.562;13.384;2023-06-10T04:06:00;14.20;;;8.60;;
34433;SDS011;34290;48.562;13.384;2023-06-10T04:08:27;10.43;;;7.32;;
34433;SDS011;34290;48.562;13.384;2023-06-10T04:10:54;12.32;;;7.47;;
34433;SDS011;34290;48.562;13.384;2023-06-10T04:13:24;11.88;;;6.88;;
34433;SDS011;34290;48.562;13.384;2023-06-10T04:15:51;11.45;;;7.55;;
34433;SDS011;34290;48.562;13.384;2023-06-10T04:18:19;11.88;;;7.57;;
34433;SDS011;34290;48.562;13.384;2023-06-10T04:20:46;14.13;;;7.60;;
34433;SDS011;34290;48.562;13.384;2023-06-10T04:23:14;11.82;;;6.95;;
34433;SDS011;34290;48.562;13.384;2023-06-10T04:25:40;10.70;;;6.85;;
34433;SDS011;34290;48.562;13.384;2023-06-10T04:28:08;15.82;;;6.68;;
34433;SDS011;34290;48.562;13.384;2023-06-10T04:30:36;9.60;;;5.93;;
34433;SDS011;34290;48.562;13.384;2023-06-10T04:33:03;9.25;;;5.97;;
34433;SDS011;34290;48.562;13.384;2023-06-10T04:35:31;12.80;;;6.57;;
34433;SDS011;34290;48.562;13.384;2023-06-10T04:37:58;13.45;;;6.53;;
34433;SDS011;34290;48.562;13.384;2023-06-10T04:40:27;15.23;;;6.72;;
34433;SDS011;34290;48.562;13.384;2023-06-10T04:42:55;10.55;;;5.68;;
34433;SDS011;34290;48.562;13.384;2023-06-10T04:45:22;10.95;;;6.95;;
34433;SDS011;34290;48.562;13.384;2023-06-10T04:47:50;14.05;;;8.57;;
34433;SDS011;34290;48.562;13.384;2023-06-10T04:50:17;14.93;;;8.50;;
34433;SDS011;34290;48.562;13.384;2023-06-10T04:52:44;12.18;;;7.93;;
34433;SDS011;34290;48.562;13.384;2023-06-10T04:55:11;14.48;;;7.43;;
34433;SDS011;34290;48.562;13.384;2023-06-10T04:57:38;15.32;;;7.05;;
34433;SDS011;34290;48.562;13.384;2023-06-10T05:00:06;13.73;;;7.43;;
34433;SDS011;34290;48.562;13.384;2023-06-10T05:02:33;11.35;;;7.20;;
34433;SDS011;34290;48.562;13.384;2023-06-10T05:05:02;10.68;;;6.93;;
34433;SDS011;34290;48.562;13.384;2023-06-10T05:07:29;13.40;;;7.35;;
34433;SDS011;34290;48.562;13.384;2023-06-10T05:09:56;9.25;;;5.68;;
34433;SDS011;34290;48.562;13.384;2023-06-10T05:12:23;11.88;;;5.85;;
34433;SDS011;34290;48.562;13.384;2023-06-10T05:14:50;9.95;;;6.45;;
34433;SDS011;34290;48.562;13.384;2023-06-10T05:17:17;11.75;;;6.93;;
34433;SDS011;34290;48.562;13.384;2023-06-10T05:19:44;10.60;;;7.15;;
34433;SDS011;34290;48.562;13.384;2023-06-10T05:22:13;13.52;;;7.50;;
34433;SDS011;34290;48.562;13.384;2023-06-10T05:24:41;12.77;;;8.02;;
34433;SDS011;34290;48.562;13.384;2023-06-10T05:27:09;11.02;;;7.57;;
34433;SDS011;34290;48.562;13.384;2023-06-10T05:29:36;11.88;;;7.03;;
34433;SDS011;34290;48.562;13.384;2023-06-10T05:32:03;13.05;;;6.97;;
34433;SDS011;34290;48.562;13.384;2023-06-10T05:34:30;11.88;;;7.18;;
34433;SDS011;34290;48.562;13.384;2023-06-10T05:36:57;11.07;;;7.03;;
34433;SDS011;34290;48.562;13.384;2023-06-10T05:39:26;10.85;;;6.90;;
34433;SDS011;34290;48.562;13.384;2023-06-10T05:41:53;13.02;;;7.53;;
34433;SDS011;34290;48.562;13.384;2023-06-10T05:44:20;13.13;;;8.02;;
34433;SDS011;34290;48.562;13.384;2023-06-10T05:46:47;13.10;;;7.95;;
34433;SDS011;34290;48.562;13.384;2023-06-10T05:49:14;11.77;;;8.00;;
34433;SDS011;34290;48.562;13.384;2023-06-10T05:51:41;11.15;;;7.38;;
34433;SDS011;34290;48.562;13.384;2023-06-10T05:54:08;11.30;;;7.35;;
34433;SDS011;34290;48.562;13.384;2023-06-10T05:56:36;12.00;;;7.25;;
34433;SDS011;34290;48.562;13.384;2023-06-10T05:59:04;12.70;;;7.47;;
34433;SDS011;34290;48.562;13.384;2023-06-10T06:01:31;9.85;;;6.70;;
34433;SDS011;34290;48.562;13.384;2023-06-10T06:03:58;11.80;;;7.13;;
34433;SDS011;34290;48.562;13.384;2023-06-10T06:06:25;12.40;;;7.10;;
34433;SDS011;34290;48.562;13.384;2023-06-10T06:08:52;11.30;;;6.60;;
34433;SDS011;34290;48.562;13.384;2023-06-10T06:11:19;13.88;;;6.85;;
34433;SDS011;34290;48.562;13.384;2023-06-10T06:13:48;9.35;;;6.38;;
34433;SDS011;34290;48.562;13.384;2023-06-10T06:16:15;8.95;;;5.93;;
34433;SDS011;34290;48.562;13.384;2023-06-10T06:18:43;9.38;;;5.72;;
34433;SDS011;34290;48.562;13.384;2023-06-10T06:21:10;9.82;;;6.63;;
34433;SDS011;34290;48.562;13.384;2023-06-10T06:23:37;8.27;;;6.10;;
34433;SDS011;34290;48.562;13.384;2023-06-10T06:26:04;8.63;;;6.28;;
34433;SDS011;34290;48.562;13.384;2023-06-10T06:28:32;7.53;;;5.60;;
34433;SDS011;34290;48.562;13.384;2023-06-10T06:31:00;7.40;;;5.43;;
34433;SDS011;34290;48.562;13.384;2023-06-10T06:33:27;11.85;;;5.63;;
34433;SDS011;34290;48.562;13.384;2023-06-10T06:35:54;8.15;;;5.75;;
34433;SDS011;34290;48.562;13.384;2023-06-10T06:38:21;6.60;;;5.22;;
34433;SDS011;34290;48.562;13.384;2023-06-10T06:40:48;7.28;;;5.38;;
34433;SDS011;34290;48.562;13.384;2023-06-10T06:43:16;7.90;;;5.82;;
34433;SDS011;34290;48.562;13.384;2023-06-10T06:45:43;8.00;;;5.10;;
34433;SDS011;34290;48.562;13.384;2023-06-10T06:48:12;7.75;;;5.20;;
34433;SDS011;34290;48.562;13.384;2023-06-10T06:50:39;7.53;;;5.43;;
34433;SDS011;34290;48.562;13.384;2023-06-10T06:53:07;8.38;;;5.65;;
34433;SDS011;34290;48.562;13.384;2023-06-10T06:55:34;10.55;;;5.53;;
34433;SDS011;34290;48.562;13.384;2023-06-10T06:58:01;7.70;;;5.43;;
34433;SDS011;34290;48.562;13.384;2023-06-10T07:00:29;7.55;;;5.35;;
34433;SDS011;34290;48.562;13.384;2023-06-10T07:02:56;12.57;;;5.93;;
34433;SDS011;34290;48.562;13.384;2023-06-10T07:05:24;11.05;;;5.97;;
34433;SDS011;34290;48.562;13.384;2023-06-10T07:07:52;7.50;;;5.32;;
34433;SDS011;34290;48.562;13.384;2023-06-10T07:10:20;8.60;;;5.38;;
34433;SDS011;34290;48.562;13.384;2023-06-10T07:12:47;11.30;;;6.40;;
34433;SDS011;34290;48.562;13.384;2023-06-10T07:15:14;10.75;;;6.65;;
34433;SDS011;34290;48.562;13.384;2023-06-10T07:17:42;8.52;;;6.28;;
34433;SDS011;34290;48.562;13.384;2023-06-10T07:20:09;9.48;;;6.50;;
34433;SDS011;34290;48.562;13.384;2023-06-10T07:22:38;10.35;;;6.30;;
34433;SDS011;34290;48.562;13.384;2023-06-10T07:25:06;8.93;;;6.35;;
34433;SDS011;34290;48.562;13.384;2023-06-10T07:27:33;10.43;;;7.03;;
34433;SDS011;34290;48.562;13.384;2023-06-10T07:30:01;11.60;;;6.55;;
34433;SDS011;34290;48.562;13.384;2023-06-10T07:32:28;10.90;;;6.80;;
34433;SDS011;34290;48.562;13.384;2023-06-10T07:34:55;10.55;;;6.85;;
34433;SDS011;34290;48.562;13.384;2023-06-10T07:37:22;11.20;;;7.13;;
34433;SDS011;34290;48.562;13.384;2023-06-10T07:39:51;11.00;;;7.22;;
34433;SDS011;34290;48.562;13.384;2023-06-10T07:42:18;13.23;;;7.47;;
34433;SDS011;34290;48.562;13.384;2023-06-10T07:44:45;13.85;;;7.50;;
34433;SDS011;34290;48.562;13.384;2023-06-10T07:47:12;9.65;;;6.47;;
34433;SDS011;34290;48.562;13.384;2023-06-10T07:49:39;11.35;;;6.75;;
34433;SDS011;34290;48.562;13.384;2023-06-10T07:52:07;11.27;;;6.55;;
34433;SDS011;34290;48.562;13.384;2023-06-10T07:54:34;9.88;;;6.47;;
34433;SDS011;34290;48.562;13.384;2023-06-10T07:57:02;10.15;;;7.15;;
34433;SDS011;34290;48.562;13.384;2023-06-10T07:59:30;10.38;;;6.88;;
34433;SDS011;34290;48.562;13.384;2023-06-10T08:01:57;9.32;;;6.47;;
34433;SDS011;34290;48.562;13.384;2023-06-10T08:04:24;10.48;;;7.13;;
34433;SDS011;34290;48.562;13.384;2023-06-10T08:06:51;11.73;;;6.95;;
34433;SDS011;34290;48.562;13.384;2023-06-10T08:09:18;9.23;;;6.47;;
34433;SDS011;34290;48.562;13.384;2023-06-10T08:11:46;10.27;;;6.78;;
34433;SDS011;34290;48.562;13.384;2023-06-10T08:14:15;11.07;;;7.18;;
34433;SDS011;34290;48.562;13.384;2023-06-10T08:16:43;9.38;;;6.40;;
34433;SDS011;34290;48.562;13.384;2023-06-10T08:19:10;9.70;;;6.45;;
34433;SDS011;34290;48.562;13.384;2023-06-10T08:21:37;9.80;;;6.00;;
34433;SDS011;34290;48.562;13.384;2023-06-10T08:24:05;11.48;;;6.90;;
34433;SDS011;34290;48.562;13.384;2023-06-10T08:26:32;8.95;;;6.05;;
34433;SDS011;34290;48.562;13.384;2023-06-10T08:29:00;9.38;;;6.32;;
34433;SDS011;34290;48.562;13.384;2023-06-10T08:31:28;10.07;;;6.28;;
34433;SDS011;34290;48.562;13.384;2023-06-10T08:33:55;8.93;;;5.97;;
34433;SDS011;34290;48.562;13.384;2023-06-10T08:36:22;10.40;;;6.45;;
34433;SDS011;34290;48.562;13.384;2023-06-10T08:38:49;9.68;;;5.82;;
34433;SDS011;34290;48.562;13.384;2023-06-10T08:41:17;10.90;;;6.30;;
34433;SDS011;34290;48.562;13.384;2023-06-10T08:43:46;9.15;;;6.18;;
34433;SDS011;34290;48.562;13.384;2023-06-10T08:46:20;10.30;;;6.53;;
34433;SDS011;34290;48.562;13.384;2023-06-10T08:48:48;9.15;;;6.65;;
34433;SDS011;34290;48.562;13.384;2023-06-10T08:51:18;9.68;;;6.35;;
34433;SDS011;34290;48.562;13.384;2023-06-10T08:53:48;10.00;;;6.22;;
34433;SDS011;34290;48.562;13.384;2023-06-10T08:56:20;9.70;;;6.80;;
34433;SDS011;34290;48.562;13.384;2023-06-10T08:58:51;10.63;;;6.72;;
34433;SDS011;34290;48.562;13.384;2023-06-10T09:01:18;9.93;;;6.78;;
34433;SDS011;34290;48.562;13.384;2023-06-10T09:03:46;9.35;;;6.60;;
34433;SDS011;34290;48.562;13.384;2023-06-10T09:06:14;11.23;;;6.68;;
34433;SDS011;34290;48.562;13.384;2023-06-10T09:08:42;9.23;;;6.18;;
34433;SDS011;34290;48.562;13.384;2023-06-10T09:11:09;8.95;;;6.50;;
34433;SDS011;34290;48.562;13.384;2023-06-10T09:13:36;9.18;;;6.13;;
34433;SDS011;34290;48.562;13.384;2023-06-10T09:16:03;8.85;;;6.03;;
34433;SDS011;34290;48.562;13.384;2023-06-10T09:18:30;7.95;;;5.25;;
34433;SDS011;34290;48.562;13.384;2023-06-10T09:20:59;9.68;;;6.00;;
34433;SDS011;34290;48.562;13.384;2023-06-10T09:23:28;7.53;;;5.90;;
34433;SDS011;34290;48.562;13.384;2023-06-10T09:25:55;8.63;;;6.03;;
34433;SDS011;34290;48.562;13.384;2023-06-10T09:28:23;9.52;;;6.05;;
34433;SDS011;34290;48.562;13.384;2023-06-10T09:31:02;9.18;;;6.25;;
34433;SDS011;34290;48.562;13.384;2023-06-10T09:33:30;8.65;;;6.57;;
34433;SDS011;34290;48.562;13.384;2023-06-10T09:35:57;7.85;;;6.25;;
34433;SDS011;34290;48.562;13.384;2023-06-10T09:38:30;8.07;;;5.55;;
34433;SDS011;34290;48.562;13.384;2023-06-10T09:40:58;9.13;;;6.07;;
34433;SDS011;34290;48.562;13.384;2023-06-10T09:43:38;8.90;;;6.65;;
34433;SDS011;34290;48.562;13.384;2023-06-10T09:46:07;9.20;;;6.43;;
34433;SDS011;34290;48.562;13.384;2023-06-10T09:48:40;8.75;;;6.22;;
34433;SDS011;34290;48.562;13.384;2023-06-10T09:51:09;9.40;;;5.60;;
34433;SDS011;34290;48.562;13.384;2023-06-10T09:53:37;10.90;;;6.43;;
34433;SDS011;34290;48.562;13.384;2023-06-10T09:56:05;8.77;;;5.55;;
34433;SDS011;34290;48.562;13.384;2023-06-10T09:58:35;7.20;;;5.50;;
34433;SDS011;34290;48.562;13.384;2023-06-10T10:01:06;8.48;;;5.32;;
34433;SDS011;34290;48.562;13.384;2023-06-10T10:03:42;5.90;;;4.00;;
34433;SDS011;34290;48.562;13.384;2023-06-10T10:06:11;7.53;;;5.38;;
34433;SDS011;34290;48.562;13.384;2023-06-10T10:08:39;9.20;;;5.88;;
34433;SDS011;34290;48.562;13.384;2023-06-10T10:11:06;8.70;;;5.35;;
34433;SDS011;34290;48.562;13.384;2023-06-10T10:13:34;8.60;;;5.95;;
34433;SDS011;34290;48.562;13.384;2023-06-10T10:16:02;7.45;;;5.30;;
34433;SDS011;34290;48.562;13.384;2023-06-10T10:18:32;9.13;;;5.43;;
34433;SDS011;34290;48.562;13.384;2023-06-10T10:21:05;8.68;;;5.70;;
34433;SDS011;34290;48.562;13.384;2023-06-10T10:23:34;9.20;;;6.03;;
34433;SDS011;34290;48.562;13.384;2023-06-10T10:26:04;9.65;;;6.18;;
34433;SDS011;34290;48.562;13.384;2023-06-10T10:28:34;8.50;;;6.03;;
34433;SDS011;34290;48.562;13.384;2023-06-10T10:31:08;7.53;;;5.75;;
34433;SDS011;34290;48.562;13.384;2023-06-10T10:33:40;9.18;;;6.20;;
34433;SDS011;34290;48.562;13.384;2023-06-10T10:36:14;9.95;;;6.45;;
34433;SDS011;34290;48.562;13.384;2023-06-10T10:38:42;9.32;;;6.72;;
34433;SDS011;34290;48.562;13.384;2023-06-10T10:41:13;8.00;;;5.50;;
34433;SDS011;34290;48.562;13.384;2023-06-10T10:43:41;8.35;;;5.70;;
34433;SDS011;34290;48.562;13.384;2023-06-10T10:46:11;8.18;;;5.93;;
34433;SDS011;34290;48.562;13.384;2023-06-10T10:48:39;7.90;;;5.50;;
34433;SDS011;34290;48.562;13.384;2023-06-10T10:51:07;8.02;;;6.10;;
34433;SDS011;34290;48.562;13.384;2023-06-10T10:53:34;9.82;;;6.10;;
34433;SDS011;34290;48.562;13.384;2023-06-10T10:56:04;7.63;;;5.55;;
34433;SDS011;34290;48.562;13.384;2023-06-10T10:58:33;11.13;;;6.05;;
34433;SDS011;34290;48.562;13.384;2023-06-10T11:01:10;8.23;;;5.45;;
34433;SDS011;34290;48.562;13.384;2023-06-10T11:03:42;10.70;;;5.68;;
34433;SDS011;34290;48.562;13.384;2023-06-10T11:06:11;8.23;;;5.68;;
34433;SDS011;34290;48.562;13.384;2023-06-10T11:08:45;8.40;;;6.35;;
34433;SDS011;34290;48.562;13.384;2023-06-10T11:11:17;11.23;;;6.05;;
34433;SDS011;34290;48.562;13.384;2023-06-10T11:13:58;8.93;;;5.82;;
34433;SDS011;34290;48.562;13.384;2023-06-10T11:16:38;8.40;;;5.95;;
34433;SDS011;34290;48.562;13.384;2023-06-10T11:19:06;8.40;;;4.82;;
34433;SDS011;34290;48.562;13.384;2023-06-10T11:21:37;8.35;;;5.50;;
34433;SDS011;34290;48.562;13.384;2023-06-10T11:24:18;11.38;;;7.20;;
34433;SDS011;34290;48.562;13.384;2023-06-10T11:26:46;7.28;;;5.10;;
34433;SDS011;34290;48.562;13.384;2023-06-10T11:29:14;8.80;;;5.38;;
34433;SDS011;34290;48.562;13.384;2023-06-10T11:31:43;7.03;;;4.38;;
34433;SDS011;34290;48.562;13.384;2023-06-10T11:34:12;6.38;;;4.78;;
34433;SDS011;34290;48.562;13.384;2023-06-10T11:36:40;6.95;;;4.90;;
34433;SDS011;34290;48.562;13.384;2023-06-10T11:39:10;7.13;;;5.07;;
34433;SDS011;34290;48.562;13.384;2023-06-10T11:41:38;9.88;;;5.40;;
34433;SDS011;34290;48.562;13.384;2023-06-10T11:44:07;9.02;;;4.85;;
34433;SDS011;34290;48.562;13.384;2023-06-10T11:46:36;5.85;;;4.43;;
34433;SDS011;34290;48.562;13.384;2023-06-10T11:49:04;6.88;;;4.65;;
34433;SDS011;34290;48.562;13.384;2023-06-10T11:51:33;6.10;;;4.35;;
34433;SDS011;34290;48.562;13.384;2023-06-10T11:54:01;6.07;;;4.57;;
34433;SDS011;34290;48.562;13.384;2023-06-10T11:56:29;7.05;;;4.47;;
34433;SDS011;34290;48.562;13.384;2023-06-10T11:58:58;6.53;;;4.60;;
34433;SDS011;34290;48.562;13.384;2023-06-10T12:01:29;6.03;;;4.50;;
34433;SDS011;34290;48.562;13.384;2023-06-10T12:03:59;7.38;;;4.68;;
34433;SDS011;34290;48.562;13.384;2023-06-10T12:06:27;6.75;;;4.75;;
34433;SDS011;34290;48.562;13.384;2023-06-10T12:09:04;8.65;;;4.55;;
34433;SDS011;34290;48.562;13.384;2023-06-10T12:11:33;7.47;;;4.60;;
34433;SDS011;34290;48.562;13.384;2023-06-10T12:14:01;6.32;;;4.60;;
34433;SDS011;34290;48.562;13.384;2023-06-10T12:16:29;6.68;;;4.70;;
34433;SDS011;34290;48.562;13.384;2023-06-10T12:19:02;5.30;;;4.30;;
34433;SDS011;34290;48.562;13.384;2023-06-10T12:21:31;7.22;;;4.82;;
34433;SDS011;34290;48.562;13.384;2023-06-10T12:24:00;10.07;;;4.95;;
34433;SDS011;34290;48.562;13.384;2023-06-10T12:26:35;6.05;;;4.80;;
34433;SDS011;34290;48.562;13.384;2023-06-10T12:29:11;9.27;;;4.88;;
34433;SDS011;34290;48.562;13.384;2023-06-10T12:31:53;7.95;;;5.13;;
34433;SDS011;34290;48.562;13.384;2023-06-10T12:34:33;8.60;;;5.00;;
34433;SDS011;34290;48.562;13.384;2023-06-10T12:37:02;8.23;;;4.95;;
34433;SDS011;34290;48.562;13.384;2023-06-10T12:39:31;7.43;;;4.85;;
34433;SDS011;34290;48.562;13.384;2023-06-10T12:41:58;7.03;;;4.95;;
34433;SDS011;34290;48.562;13.384;2023-06-10T12:44:29;7.35;;;4.97;;
34433;SDS011;34290;48.562;13.384;2023-06-10T12:46:56;6.63;;;5.18;;
34433;SDS011;34290;48.562;13.384;2023-06-10T12:49:23;7.50;;;5.22;;
34433;SDS011;34290;48.562;13.384;2023-06-10T12:51:53;9.57;;;5.53;;
34433;SDS011;34290;48.562;13.384;2023-06-10T12:54:20;7.85;;;5.88;;
34433;SDS011;34290;48.562;13.384;2023-06-10T12:56:48;7.72;;;5.63;;
34433;SDS011;34290;48.562;13.384;2023-06-10T12:59:15;10.07;;;5.43;;
34433;SDS011;34290;48.562;13.384;2023-06-10T13:01:42;8.25;;;5.68;;
34433;SDS011;34290;48.562;13.384;2023-06-10T13:04:09;11.50;;;6.45;;
34433;SDS011;34290;48.562;13.384;2023-06-10T13:06:36;9.57;;;6.35;;
34433;SDS011;34290;48.562;13.384;2023-06-10T13:09:05;9.73;;;5.85;;
34433;SDS011;34290;48.562;13.384;2023-06-10T13:11:33;10.57;;;6.10;;
34433;SDS011;34290;48.562;13.384;2023-06-10T13:14:01;7.38;;;5.50;;
34433;SDS011;34290;48.562;13.384;2023-06-10T13:16:29;9.57;;;5.90;;
34433;SDS011;34290;48.562;13.384;2023-06-10T13:18:56;9.18;;;6.75;;
34433;SDS011;34290;48.562;13.384;2023-06-10T13:21:23;10.13;;;6.40;;
34433;SDS011;34290;48.562;13.384;2023-06-10T13:23:51;9.57;;;6.15;;
34433;SDS011;34290;48.562;13.384;2023-06-10T13:26:19;11.55;;;6.40;;
34433;SDS011;34290;48.562;13.384;2023-06-10T13:28:46;11.18;;;6.50;;
34433;SDS011;34290;48.562;13.384;2023-06-10T13:31:14;9.93;;;6.55;;
34433;SDS011;34290;48.562;13.384;2023-06-10T13:33:41;9.13;;;6.70;;
34433;SDS011;34290;48.562;13.384;2023-06-10T13:36:08;11.05;;;6.82;;
34433;SDS011;34290;48.562;13.384;2023-06-10T13:38:35;10.75;;;6.72;;
34433;SDS011;34290;48.562;13.384;2023-06-10T13:41:02;10.13;;;7.30;;
34433;SDS011;34290;48.562;13.384;2023-06-10T13:43:31;8.02;;;6.18;;
34433;SDS011;34290;48.562;13.384;2023-06-10T13:45:58;13.40;;;6.78;;
34433;SDS011;34290;48.562;13.384;2023-06-10T13:48:25;8.98;;;6.60;;
34433;SDS011;34290;48.562;13.384;2023-06-10T13:50:52;13.40;;;7.20;;
34433;SDS011;34290;48.562;13.384;2023-06-10T13:53:19;14.30;;;8.07;;
34433;SDS011;34290;48.562;13.384;2023-06-10T13:55:46;11.18;;;7.97;;
34433;SDS011;34290;48.562;13.384;2023-06-10T13:58:13;10.10;;;6.70;;
34433;SDS011;34290;48.562;13.384;2023-06-10T14:00:42;13.27;;;7.63;;
34433;SDS011;34290;48.562;13.384;2023-06-10T14:03:09;10.88;;;7.28;;
34433;SDS011;34290;48.562;13.384;2023-06-10T14:05:37;9.50;;;6.63;;
34433;SDS011;34290;48.562;13.384;2023-06-10T14:08:04;14.07;;;8.48;;
34433;SDS011;34290;48.562;13.384;2023-06-10T14:10:31;10.68;;;7.40;;
34433;SDS011;34290;48.562;13.384;2023-06-10T14:12:58;13.53;;;7.60;;
34433;SDS011;34290;48.562;13.384;2023-06-10T14:15:26;11.68;;;7.43;;
34433;SDS011;34290;48.562;13.384;2023-06-10T14:17:54;12.77;;;6.72;;
34433;SDS011;34290;48.562;13.384;2023-06-10T14:20:21;12.30;;;7.28;;
34433;SDS011;34290;48.562;13.384;2023-06-10T14:22:50;17.75;;;7.32;;
34433;SDS011;34290;48.562;13.384;2023-06-10T14:25:17;16.15;;;6.88;;
34433;SDS011;34290;48.562;13.384;2023-06-10T14:27:44;16.38;;;6.80;;
34433;SDS011;34290;48.562;13.384;2023-06-10T14:30:13;11.55;;;7.43;;
34433;SDS011;34290;48.562;13.384;2023-06-10T14:32:40;13.13;;;7.00;;